sensor_id;sensor_type;location;lat;lon;timestamp;temperature;humidity
22161;DHT22;49035;48.812;11.762;2023-04-06T00:01:27;-4.10;99.90
22161;DHT22;49035;48.812;11.762;2023-04-06T00:03:52;-3.90;99.90
22161;DHT22;49035;48.812;11.762;2023-04-06T00:06:18;-4.00;99.90
22161;DHT22;49035;48.812;11.762;2023-04-06T00:08:43;-4.00;99.90
22161;DHT22;49035;48.812;11.762;2023-04-06T00:11:10;-4.00;99.90
22161;DHT22;49035;48.812;11.762;2023-04-06T00:13:35;-4.10;99.90
22161;DHT22;49035;48.812;11.762;2023-04-06T00:16:01;-4.30;99.90
22161;DHT22;49035;48.812;11.762;2023-04-06T00:18:26;-4.40;99.90
22161;DHT22;49035;48.812;11.762;2023-04-06T00:20:52;-4.60;99.90
22161;DHT22;49035;48.812;11.762;2023-04-06T00:23:18;-4.70;99.90
22161;DHT22;49035;48.812;11.762;2023-04-06T00:25:43;-4.70;99.90
22161;DHT22;49035;48.812;11.762;2023-04-06T00:28:09;-4.60;99.90
22161;DHT22;49035;48.812;11.762;2023-04-06T00:30:34;-4.60;99.90
22161;DHT22;49035;48.812;11.762;2023-04-06T00:33:00;-4.40;99.90
22161;DHT22;49035;48.812;11.762;2023-04-06T00:35:26;-4.50;99.90
22161;DHT22;49035;48.812;11.762;2023-04-06T00:37:52;-4.50;99.90
22161;DHT22;49035;48.812;11.762;2023-04-06T00:40:17;-4.50;99.90
22161;DHT22;49035;48.812;11.762;2023-04-06T00:42:43;-4.50;99.90
22161;DHT22;49035;48.812;11.762;2023-04-06T00:45:10;-4.50;99.90
22161;DHT22;49035;48.812;11.762;2023-04-06T00:47:35;-4.60;99.90
22161;DHT22;49035;48.812;11.762;2023-04-06T00:50:01;-4.70;99.90
22161;DHT22;49035;48.812;11.762;2023-04-06T00:52:26;-4.80;99.90
22161;DHT22;49035;48.812;11.762;2023-04-06T00:54:52;-4.90;99.90
22161;DHT22;49035;48.812;11.762;2023-04-06T00:57:18;-5.00;99.90
22161;DHT22;49035;48.812;11.762;2023-04-06T00:59:44;-5.00;99.90
22161;DHT22;49035;48.812;11.762;2023-04-06T01:02:10;-5.00;99.90
22161;DHT22;49035;48.812;11.762;2023-04-06T01:04:36;-5.00;99.90
22161;DHT22;49035;48.812;11.762;2023-04-06T01:07:01;-5.00;99.90
22161;DHT22;49035;48.812;11.762;2023-04-06T01:09:28;-5.10;99.90
22161;DHT22;49035;48.812;11.762;2023-04-06T01:11:56;-4.90;99.90
22161;DHT22;49035;48.812;11.762;2023-04-06T01:14:22;-4.60;99.90
22161;DHT22;49035;48.812;11.762;2023-04-06T01:16:48;-4.50;99.90
22161;DHT22;49035;48.812;11.762;2023-04-06T01:19:13;-4.40;99.90
22161;DHT22;49035;48.812;11.762;2023-04-06T01:21:40;-4.10;99.90
22161;DHT22;49035;48.812;11.762;2023-04-06T01:24:07;-4.30;99.90
22161;DHT22;49035;48.812;11.762;2023-04-06T01:26:33;-4.50;99.90
22161;DHT22;49035;48.812;11.762;2023-04-06T01:28:59;-4.50;99.90
22161;DHT22;49035;48.812;11.762;2023-04-06T01:31:25;-4.60;99.90
22161;DHT22;49035;48.812;11.762;2023-04-06T01:33:51;-4.70;99.90
22161;DHT22;49035;48.812;11.762;2023-04-06T01:36:17;-4.80;99.90
22161;DHT22;49035;48.812;11.762;2023-04-06T01:38:43;-4.90;99.90
22161;DHT22;49035;48.812;11.762;2023-04-06T01:41:08;-4.90;99.90
22161;DHT22;49035;48.812;11.762;2023-04-06T01:43:34;-4.90;99.90
22161;DHT22;49035;48.812;11.762;2023-04-06T01:46:00;-5.00;99.90
22161;DHT22;49035;48.812;11.762;2023-04-06T01:48:26;-5.20;99.90
22161;DHT22;49035;48.812;11.762;2023-04-06T01:50:52;-5.30;99.90
22161;DHT22;49035;48.812;11.762;2023-04-06T01:53:18;-5.50;99.90
22161;DHT22;49035;48.812;11.762;2023-04-06T01:55:44;-5.50;99.90
22161;DHT22;49035;48.812;11.762;2023-04-06T01:58:09;-5.40;99.90
22161;DHT22;49035;48.812;11.762;2023-04-06T02:00:35;-5.30;99.90
22161;DHT22;49035;48.812;11.762;2023-04-06T02:03:01;-5.30;99.90
22161;DHT22;49035;48.812;11.762;2023-04-06T02:05:27;-5.30;99.90
22161;DHT22;49035;48.812;11.762;2023-04-06T02:07:53;-5.30;99.90
22161;DHT22;49035;48.812;11.762;2023-04-06T02:10:19;-5.30;99.90
22161;DHT22;49035;48.812;11.762;2023-04-06T02:12:44;-5.30;99.90
22161;DHT22;49035;48.812;11.762;2023-04-06T02:15:10;-5.10;99.90
22161;DHT22;49035;48.812;11.762;2023-04-06T02:17:35;-4.60;99.90
22161;DHT22;49035;48.812;11.762;2023-04-06T02:20:01;-4.30;99.90
22161;DHT22;49035;48.812;11.762;2023-04-06T02:22:26;-4.20;99.90
22161;DHT22;49035;48.812;11.762;2023-04-06T02:24:52;-4.20;99.90
22161;DHT22;49035;48.812;11.762;2023-04-06T02:27:17;-4.40;99.90
22161;DHT22;49035;48.812;11.762;2023-04-06T02:29:43;-4.60;99.90
22161;DHT22;49035;48.812;11.762;2023-04-06T02:32:09;-4.90;99.90
22161;DHT22;49035;48.812;11.762;2023-04-06T02:34:34;-5.00;99.90
22161;DHT22;49035;48.812;11.762;2023-04-06T02:37:00;-5.10;99.90
22161;DHT22;49035;48.812;11.762;2023-04-06T02:39:26;-5.30;99.90
22161;DHT22;49035;48.812;11.762;2023-04-06T02:41:51;-5.50;99.90
22161;DHT22;49035;48.812;11.762;2023-04-06T02:44:17;-5.60;99.90
22161;DHT22;49035;48.812;11.762;2023-04-06T02:46:42;-5.60;99.90
22161;DHT22;49035;48.812;11.762;2023-04-06T02:49:08;-5.60;99.90
22161;DHT22;49035;48.812;11.762;2023-04-06T02:51:33;-5.60;99.90
22161;DHT22;49035;48.812;11.762;2023-04-06T02:53:59;-5.60;99.90
22161;DHT22;49035;48.812;11.762;2023-04-06T02:56:25;-5.60;99.90
22161;DHT22;49035;48.812;11.762;2023-04-06T02:58:51;-5.60;99.90
22161;DHT22;49035;48.812;11.762;2023-04-06T03:01:17;-5.50;99.90
22161;DHT22;49035;48.812;11.762;2023-04-06T03:03:42;-5.60;99.90
22161;DHT22;49035;48.812;11.762;2023-04-06T03:06:08;-5.50;99.90
22161;DHT22;49035;48.812;11.762;2023-04-06T03:08:33;-5.40;99.90
22161;DHT22;49035;48.812;11.762;2023-04-06T03:10:59;-5.50;99.90
22161;DHT22;49035;48.812;11.762;2023-04-06T03:13:25;-5.50;99.90
22161;DHT22;49035;48.812;11.762;2023-04-06T03:15:50;-5.50;99.90
22161;DHT22;49035;48.812;11.762;2023-04-06T03:18:20;-5.50;99.90
22161;DHT22;49035;48.812;11.762;2023-04-06T03:20:46;-5.50;99.90
22161;DHT22;49035;48.812;11.762;2023-04-06T03:23:12;-5.50;99.90
22161;DHT22;49035;48.812;11.762;2023-04-06T03:25:37;-5.60;99.90
22161;DHT22;49035;48.812;11.762;2023-04-06T03:28:05;-5.70;99.90
22161;DHT22;49035;48.812;11.762;2023-04-06T03:30:30;-5.70;99.90
22161;DHT22;49035;48.812;11.762;2023-04-06T03:32:56;-5.70;99.90
22161;DHT22;49035;48.812;11.762;2023-04-06T03:35:21;-5.80;99.90
22161;DHT22;49035;48.812;11.762;2023-04-06T03:37:47;-5.80;99.90
22161;DHT22;49035;48.812;11.762;2023-04-06T03:40:12;-5.60;99.90
22161;DHT22;49035;48.812;11.762;2023-04-06T03:42:38;-5.60;99.90
22161;DHT22;49035;48.812;11.762;2023-04-06T03:45:04;-5.10;99.90
22161;DHT22;49035;48.812;11.762;2023-04-06T03:47:29;-5.00;99.90
22161;DHT22;49035;48.812;11.762;2023-04-06T03:49:55;-4.90;99.90
22161;DHT22;49035;48.812;11.762;2023-04-06T03:52:21;-4.80;99.90
22161;DHT22;49035;48.812;11.762;2023-04-06T03:54:48;-4.60;99.90
22161;DHT22;49035;48.812;11.762;2023-04-06T03:57:14;-4.40;99.90
22161;DHT22;49035;48.812;11.762;2023-04-06T03:59:39;-4.30;99.90
22161;DHT22;49035;48.812;11.762;2023-04-06T04:02:05;-4.20;99.90
22161;DHT22;49035;48.812;11.762;2023-04-06T04:04:31;-4.20;99.90
22161;DHT22;49035;48.812;11.762;2023-04-06T04:06:56;-4.10;99.90
22161;DHT22;49035;48.812;11.762;2023-04-06T04:09:22;-4.10;99.90
22161;DHT22;49035;48.812;11.762;2023-04-06T04:11:47;-4.30;99.90
22161;DHT22;49035;48.812;11.762;2023-04-06T04:14:13;-4.60;99.90
22161;DHT22;49035;48.812;11.762;2023-04-06T04:16:38;-4.70;99.90
22161;DHT22;49035;48.812;11.762;2023-04-06T04:19:05;-4.80;99.90
22161;DHT22;49035;48.812;11.762;2023-04-06T04:21:31;-4.80;99.90
22161;DHT22;49035;48.812;11.762;2023-04-06T04:23:56;-4.80;99.90
22161;DHT22;49035;48.812;11.762;2023-04-06T04:26:22;-4.60;99.90
22161;DHT22;49035;48.812;11.762;2023-04-06T04:28:48;-4.50;99.90
22161;DHT22;49035;48.812;11.762;2023-04-06T04:31:13;-4.50;99.90
22161;DHT22;49035;48.812;11.762;2023-04-06T04:33:39;-4.40;99.90
22161;DHT22;49035;48.812;11.762;2023-04-06T04:36:04;-4.40;99.90
22161;DHT22;49035;48.812;11.762;2023-04-06T04:38:30;-4.60;99.90
22161;DHT22;49035;48.812;11.762;2023-04-06T04:40:56;-4.50;99.90
22161;DHT22;49035;48.812;11.762;2023-04-06T04:43:21;-4.50;99.90
22161;DHT22;49035;48.812;11.762;2023-04-06T04:45:47;-4.40;99.90
22161;DHT22;49035;48.812;11.762;2023-04-06T04:48:13;-4.30;99.90
22161;DHT22;49035;48.812;11.762;2023-04-06T04:50:38;-4.40;99.90
22161;DHT22;49035;48.812;11.762;2023-04-06T04:53:04;-4.60;99.90
22161;DHT22;49035;48.812;11.762;2023-04-06T04:55:32;-4.70;99.90
22161;DHT22;49035;48.812;11.762;2023-04-06T04:57:58;-4.90;99.90
22161;DHT22;49035;48.812;11.762;2023-04-06T05:00:23;-5.10;99.90
22161;DHT22;49035;48.812;11.762;2023-04-06T05:02:49;-5.20;99.90
22161;DHT22;49035;48.812;11.762;2023-04-06T05:05:15;-5.20;99.90
22161;DHT22;49035;48.812;11.762;2023-04-06T05:07:40;-5.20;99.90
22161;DHT22;49035;48.812;11.762;2023-04-06T05:10:06;-5.30;99.90
22161;DHT22;49035;48.812;11.762;2023-04-06T05:12:32;-5.40;99.90
22161;DHT22;49035;48.812;11.762;2023-04-06T05:14:58;-5.40;99.90
22161;DHT22;49035;48.812;11.762;2023-04-06T05:17:23;-5.40;99.90
22161;DHT22;49035;48.812;11.762;2023-04-06T05:19:49;-5.20;99.90
22161;DHT22;49035;48.812;11.762;2023-04-06T05:22:14;-5.00;99.90
22161;DHT22;49035;48.812;11.762;2023-04-06T05:24:43;-4.80;99.90
22161;DHT22;49035;48.812;11.762;2023-04-06T05:27:08;-4.70;99.90
22161;DHT22;49035;48.812;11.762;2023-04-06T05:29:34;-4.50;99.90
22161;DHT22;49035;48.812;11.762;2023-04-06T05:32:01;-4.20;99.90
22161;DHT22;49035;48.812;11.762;2023-04-06T05:34:26;-4.00;99.90
22161;DHT22;49035;48.812;11.762;2023-04-06T05:36:52;-3.80;99.90
22161;DHT22;49035;48.812;11.762;2023-04-06T05:39:17;-3.70;99.90
22161;DHT22;49035;48.812;11.762;2023-04-06T05:41:43;-3.60;99.90
22161;DHT22;49035;48.812;11.762;2023-04-06T05:44:08;-3.40;99.90
22161;DHT22;49035;48.812;11.762;2023-04-06T05:46:34;-3.10;99.90
22161;DHT22;49035;48.812;11.762;2023-04-06T05:49:00;-3.00;99.90
22161;DHT22;49035;48.812;11.762;2023-04-06T05:51:25;-2.90;99.90
22161;DHT22;49035;48.812;11.762;2023-04-06T05:53:52;-2.70;99.90
22161;DHT22;49035;48.812;11.762;2023-04-06T05:56:18;-2.50;99.90
22161;DHT22;49035;48.812;11.762;2023-04-06T05:58:44;-1.90;99.90
22161;DHT22;49035;48.812;11.762;2023-04-06T06:01:09;-1.50;99.90
22161;DHT22;49035;48.812;11.762;2023-04-06T06:03:35;-0.90;99.90
22161;DHT22;49035;48.812;11.762;2023-04-06T06:06:02;-0.50;99.90
22161;DHT22;49035;48.812;11.762;2023-04-06T06:08:28;-0.10;99.90
22161;DHT22;49035;48.812;11.762;2023-04-06T06:10:54;0.00;99.90
22161;DHT22;49035;48.812;11.762;2023-04-06T06:13:20;0.20;99.90
22161;DHT22;49035;48.812;11.762;2023-04-06T06:15:47;0.50;99.90
22161;DHT22;49035;48.812;11.762;2023-04-06T06:18:12;0.70;99.90
22161;DHT22;49035;48.812;11.762;2023-04-06T06:20:38;1.20;99.90
22161;DHT22;49035;48.812;11.762;2023-04-06T06:23:03;1.40;99.90
22161;DHT22;49035;48.812;11.762;2023-04-06T06:25:29;1.70;99.90
22161;DHT22;49035;48.812;11.762;2023-04-06T06:27:56;1.70;99.90
22161;DHT22;49035;48.812;11.762;2023-04-06T06:30:22;1.70;99.90
22161;DHT22;49035;48.812;11.762;2023-04-06T06:32:48;1.70;99.90
22161;DHT22;49035;48.812;11.762;2023-04-06T06:35:13;2.00;99.90
22161;DHT22;49035;48.812;11.762;2023-04-06T06:37:39;2.20;99.90
22161;DHT22;49035;48.812;11.762;2023-04-06T06:40:05;2.80;99.90
22161;DHT22;49035;48.812;11.762;2023-04-06T06:42:31;2.80;99.90
22161;DHT22;49035;48.812;11.762;2023-04-06T06:44:57;2.80;99.90
22161;DHT22;49035;48.812;11.762;2023-04-06T06:47:22;2.70;99.90
22161;DHT22;49035;48.812;11.762;2023-04-06T06:49:48;2.50;99.90
22161;DHT22;49035;48.812;11.762;2023-04-06T06:52:13;2.60;99.90
22161;DHT22;49035;48.812;11.762;2023-04-06T06:54:39;2.60;99.90
22161;DHT22;49035;48.812;11.762;2023-04-06T06:57:05;2.90;99.90
22161;DHT22;49035;48.812;11.762;2023-04-06T06:59:31;3.00;99.90
22161;DHT22;49035;48.812;11.762;2023-04-06T07:01:56;3.30;99.90
22161;DHT22;49035;48.812;11.762;2023-04-06T07:04:22;3.40;99.90
22161;DHT22;49035;48.812;11.762;2023-04-06T07:06:47;3.50;99.90
22161;DHT22;49035;48.812;11.762;2023-04-06T07:09:13;3.70;99.90
22161;DHT22;49035;48.812;11.762;2023-04-06T07:11:38;3.70;99.90
22161;DHT22;49035;48.812;11.762;2023-04-06T07:14:04;3.60;99.90
22161;DHT22;49035;48.812;11.762;2023-04-06T07:16:30;3.60;99.90
22161;DHT22;49035;48.812;11.762;2023-04-06T07:18:55;3.70;99.90
22161;DHT22;49035;48.812;11.762;2023-04-06T07:21:21;3.70;99.90
22161;DHT22;49035;48.812;11.762;2023-04-06T07:23:47;3.90;99.90
22161;DHT22;49035;48.812;11.762;2023-04-06T07:26:13;3.90;98.40
22161;DHT22;49035;48.812;11.762;2023-04-06T07:28:39;4.00;99.60
22161;DHT22;49035;48.812;11.762;2023-04-06T07:31:04;4.00;99.90
22161;DHT22;49035;48.812;11.762;2023-04-06T07:33:30;4.20;97.90
22161;DHT22;49035;48.812;11.762;2023-04-06T07:35:56;4.20;99.00
22161;DHT22;49035;48.812;11.762;2023-04-06T07:38:23;4.50;98.80
22161;DHT22;49035;48.812;11.762;2023-04-06T07:40:49;4.50;96.80
22161;DHT22;49035;48.812;11.762;2023-04-06T07:43:14;4.70;96.20
22161;DHT22;49035;48.812;11.762;2023-04-06T07:45:41;4.90;95.90
22161;DHT22;49035;48.812;11.762;2023-04-06T07:48:06;5.00;96.30
22161;DHT22;49035;48.812;11.762;2023-04-06T07:50:32;5.10;95.10
22161;DHT22;49035;48.812;11.762;2023-04-06T07:52:57;5.20;94.40
22161;DHT22;49035;48.812;11.762;2023-04-06T07:55:23;5.30;93.80
22161;DHT22;49035;48.812;11.762;2023-04-06T07:57:48;5.50;94.30
22161;DHT22;49035;48.812;11.762;2023-04-06T08:00:14;5.60;93.90
22161;DHT22;49035;48.812;11.762;2023-04-06T08:02:40;5.60;92.20
22161;DHT22;49035;48.812;11.762;2023-04-06T08:05:06;5.60;92.00
22161;DHT22;49035;48.812;11.762;2023-04-06T08:07:32;5.60;92.80
22161;DHT22;49035;48.812;11.762;2023-04-06T08:09:58;5.90;95.40
22161;DHT22;49035;48.812;11.762;2023-04-06T08:12:23;6.30;92.80
22161;DHT22;49035;48.812;11.762;2023-04-06T08:14:49;6.40;93.80
22161;DHT22;49035;48.812;11.762;2023-04-06T08:17:15;6.60;91.20
22161;DHT22;49035;48.812;11.762;2023-04-06T08:19:43;6.60;92.10
22161;DHT22;49035;48.812;11.762;2023-04-06T08:22:09;6.60;90.10
22161;DHT22;49035;48.812;11.762;2023-04-06T08:24:35;6.50;91.40
22161;DHT22;49035;48.812;11.762;2023-04-06T08:27:01;6.60;87.70
22161;DHT22;49035;48.812;11.762;2023-04-06T08:29:26;6.60;85.50
22161;DHT22;49035;48.812;11.762;2023-04-06T08:31:52;6.70;87.70
22161;DHT22;49035;48.812;11.762;2023-04-06T08:34:17;7.00;91.80
22161;DHT22;49035;48.812;11.762;2023-04-06T08:36:43;7.40;85.40
22161;DHT22;49035;48.812;11.762;2023-04-06T08:39:08;7.70;85.70
22161;DHT22;49035;48.812;11.762;2023-04-06T08:41:34;7.80;81.60
22161;DHT22;49035;48.812;11.762;2023-04-06T08:44:01;8.00;83.00
22161;DHT22;49035;48.812;11.762;2023-04-06T08:46:28;8.00;84.60
22161;DHT22;49035;48.812;11.762;2023-04-06T08:49:01;8.00;81.90
22161;DHT22;49035;48.812;11.762;2023-04-06T08:51:28;8.20;79.30
22161;DHT22;49035;48.812;11.762;2023-04-06T08:53:55;8.30;79.70
22161;DHT22;49035;48.812;11.762;2023-04-06T08:56:25;8.60;81.40
22161;DHT22;49035;48.812;11.762;2023-04-06T08:58:52;8.70;77.10
22161;DHT22;49035;48.812;11.762;2023-04-06T09:01:21;8.90;74.80
22161;DHT22;49035;48.812;11.762;2023-04-06T09:03:49;9.00;78.20
22161;DHT22;49035;48.812;11.762;2023-04-06T09:06:15;9.10;74.30
22161;DHT22;49035;48.812;11.762;2023-04-06T09:08:41;9.30;74.00
22161;DHT22;49035;48.812;11.762;2023-04-06T09:11:08;9.50;69.80
22161;DHT22;49035;48.812;11.762;2023-04-06T09:13:54;9.20;68.20
22161;DHT22;49035;48.812;11.762;2023-04-06T09:16:20;9.00;68.00
22161;DHT22;49035;48.812;11.762;2023-04-06T09:18:47;9.20;71.40
22161;DHT22;49035;48.812;11.762;2023-04-06T09:21:13;9.50;71.70
22161;DHT22;49035;48.812;11.762;2023-04-06T09:23:39;9.80;69.20
22161;DHT22;49035;48.812;11.762;2023-04-06T09:26:13;9.90;70.40
22161;DHT22;49035;48.812;11.762;2023-04-06T09:29:04;10.20;66.80
22161;DHT22;49035;48.812;11.762;2023-04-06T09:31:31;10.30;65.30
22161;DHT22;49035;48.812;11.762;2023-04-06T09:34:00;10.10;66.30
22161;DHT22;49035;48.812;11.762;2023-04-06T09:36:34;10.10;60.80
22161;DHT22;49035;48.812;11.762;2023-04-06T09:39:02;10.20;62.90
22161;DHT22;49035;48.812;11.762;2023-04-06T09:41:30;10.30;60.80
22161;DHT22;49035;48.812;11.762;2023-04-06T09:46:31;10.30;62.90
22161;DHT22;49035;48.812;11.762;2023-04-06T09:48:57;10.20;60.90
22161;DHT22;49035;48.812;11.762;2023-04-06T09:51:24;10.10;62.20
22161;DHT22;49035;48.812;11.762;2023-04-06T09:53:52;10.40;63.60
22161;DHT22;49035;48.812;11.762;2023-04-06T09:56:24;10.80;61.30
22161;DHT22;49035;48.812;11.762;2023-04-06T09:58:58;10.80;59.50
22161;DHT22;49035;48.812;11.762;2023-04-06T10:01:29;10.60;59.60
22161;DHT22;49035;48.812;11.762;2023-04-06T10:04:13;10.90;60.20
22161;DHT22;49035;48.812;11.762;2023-04-06T10:06:44;11.50;62.00
22161;DHT22;49035;48.812;11.762;2023-04-06T10:09:13;11.60;56.90
22161;DHT22;49035;48.812;11.762;2023-04-06T10:11:39;11.80;56.50
22161;DHT22;49035;48.812;11.762;2023-04-06T10:14:06;11.90;54.60
22161;DHT22;49035;48.812;11.762;2023-04-06T10:16:32;12.20;57.50
22161;DHT22;49035;48.812;11.762;2023-04-06T10:19:04;12.30;59.00
22161;DHT22;49035;48.812;11.762;2023-04-06T10:21:32;12.10;56.90
22161;DHT22;49035;48.812;11.762;2023-04-06T10:24:00;11.50;56.40
22161;DHT22;49035;48.812;11.762;2023-04-06T10:26:27;11.20;60.00
22161;DHT22;49035;48.812;11.762;2023-04-06T10:28:52;10.90;59.50
22161;DHT22;49035;48.812;11.762;2023-04-06T10:31:26;10.90;58.80
22161;DHT22;49035;48.812;11.762;2023-04-06T10:33:57;11.30;61.20
22161;DHT22;49035;48.812;11.762;2023-04-06T10:36:25;11.90;61.80
22161;DHT22;49035;48.812;11.762;2023-04-06T10:38:57;12.10;56.00
22161;DHT22;49035;48.812;11.762;2023-04-06T10:41:23;11.80;55.80
22161;DHT22;49035;48.812;11.762;2023-04-06T10:43:56;12.10;61.70
22161;DHT22;49035;48.812;11.762;2023-04-06T10:46:26;12.10;54.00
22161;DHT22;49035;48.812;11.762;2023-04-06T10:48:51;11.70;55.70
22161;DHT22;49035;48.812;11.762;2023-04-06T10:51:19;11.80;59.10
22161;DHT22;49035;48.812;11.762;2023-04-06T10:53:49;11.90;58.00
22161;DHT22;49035;48.812;11.762;2023-04-06T10:56:17;12.10;57.50
22161;DHT22;49035;48.812;11.762;2023-04-06T10:58:51;11.80;56.00
22161;DHT22;49035;48.812;11.762;2023-04-06T11:01:19;11.40;55.90
22161;DHT22;49035;48.812;11.762;2023-04-06T11:03:47;11.60;59.40
22161;DHT22;49035;48.812;11.762;2023-04-06T11:06:20;12.20;61.00
22161;DHT22;49035;48.812;11.762;2023-04-06T11:08:46;12.00;55.40
22161;DHT22;49035;48.812;11.762;2023-04-06T11:11:17;12.30;58.20
22161;DHT22;49035;48.812;11.762;2023-04-06T11:13:51;12.70;55.30
22161;DHT22;49035;48.812;11.762;2023-04-06T11:16:19;12.80;56.40
22161;DHT22;49035;48.812;11.762;2023-04-06T11:19:01;12.60;53.30
22161;DHT22;49035;48.812;11.762;2023-04-06T11:21:35;12.40;53.00
22161;DHT22;49035;48.812;11.762;2023-04-06T11:26:54;13.30;57.80
22161;DHT22;49035;48.812;11.762;2023-04-06T11:29:22;13.70;55.80
22161;DHT22;49035;48.812;11.762;2023-04-06T11:31:49;13.90;52.30
22161;DHT22;49035;48.812;11.762;2023-04-06T11:34:18;14.10;51.90
22161;DHT22;49035;48.812;11.762;2023-04-06T11:36:45;14.30;52.90
22161;DHT22;49035;48.812;11.762;2023-04-06T11:39:13;14.40;51.20
22161;DHT22;49035;48.812;11.762;2023-04-06T11:41:39;14.10;51.80
22161;DHT22;49035;48.812;11.762;2023-04-06T11:44:06;14.10;49.90
22161;DHT22;49035;48.812;11.762;2023-04-06T11:46:31;13.70;55.80
22161;DHT22;49035;48.812;11.762;2023-04-06T11:49:02;13.10;53.00
22161;DHT22;49035;48.812;11.762;2023-04-06T11:51:28;12.40;50.60
22161;DHT22;49035;48.812;11.762;2023-04-06T11:53:54;12.00;54.30
22161;DHT22;49035;48.812;11.762;2023-04-06T11:56:27;12.10;57.80
22161;DHT22;49035;48.812;11.762;2023-04-06T11:58:55;12.50;56.00
22161;DHT22;49035;48.812;11.762;2023-04-06T12:01:22;13.00;57.00
22161;DHT22;49035;48.812;11.762;2023-04-06T12:03:47;13.40;54.00
22161;DHT22;49035;48.812;11.762;2023-04-06T12:06:13;13.80;55.60
22161;DHT22;49035;48.812;11.762;2023-04-06T12:08:39;14.00;52.90
22161;DHT22;49035;48.812;11.762;2023-04-06T12:11:05;13.70;51.40
22161;DHT22;49035;48.812;11.762;2023-04-06T12:13:30;12.90;49.50
22161;DHT22;49035;48.812;11.762;2023-04-06T12:15:56;12.50;52.60
22161;DHT22;49035;48.812;11.762;2023-04-06T12:18:22;12.90;55.70
22161;DHT22;49035;48.812;11.762;2023-04-06T12:20:47;13.00;55.00
22161;DHT22;49035;48.812;11.762;2023-04-06T12:23:13;12.50;50.40
22161;DHT22;49035;48.812;11.762;2023-04-06T12:25:42;12.20;52.70
22161;DHT22;49035;48.812;11.762;2023-04-06T12:28:08;12.60;54.00
22161;DHT22;49035;48.812;11.762;2023-04-06T12:30:35;12.30;55.70
22161;DHT22;49035;48.812;11.762;2023-04-06T12:33:00;12.50;57.90
22161;DHT22;49035;48.812;11.762;2023-04-06T12:35:26;12.30;53.20
22161;DHT22;49035;48.812;11.762;2023-04-06T12:37:52;12.00;54.90
22161;DHT22;49035;48.812;11.762;2023-04-06T12:40:18;11.50;53.60
22161;DHT22;49035;48.812;11.762;2023-04-06T12:42:43;11.70;57.80
22161;DHT22;49035;48.812;11.762;2023-04-06T12:45:11;11.70;54.10
22161;DHT22;49035;48.812;11.762;2023-04-06T12:47:37;11.80;58.30
22161;DHT22;49035;48.812;11.762;2023-04-06T12:50:04;12.00;55.50
22161;DHT22;49035;48.812;11.762;2023-04-06T12:52:30;12.30;53.60
22161;DHT22;49035;48.812;11.762;2023-04-06T12:54:57;12.40;54.80
22161;DHT22;49035;48.812;11.762;2023-04-06T12:57:24;12.10;52.80
22161;DHT22;49035;48.812;11.762;2023-04-06T12:59:50;11.90;52.50
22161;DHT22;49035;48.812;11.762;2023-04-06T13:02:16;12.10;52.30
22161;DHT22;49035;48.812;11.762;2023-04-06T13:04:42;12.20;52.40
22161;DHT22;49035;48.812;11.762;2023-04-06T13:07:08;12.00;52.60
22161;DHT22;49035;48.812;11.762;2023-04-06T13:09:33;11.90;52.90
22161;DHT22;49035;48.812;11.762;2023-04-06T13:11:59;11.80;54.30
22161;DHT22;49035;48.812;11.762;2023-04-06T13:14:24;12.00;55.50
22161;DHT22;49035;48.812;11.762;2023-04-06T13:16:50;12.10;54.40
22161;DHT22;49035;48.812;11.762;2023-04-06T13:19:16;12.30;55.10
22161;DHT22;49035;48.812;11.762;2023-04-06T13:21:43;12.30;55.50
22161;DHT22;49035;48.812;11.762;2023-04-06T13:24:09;12.60;52.60
22161;DHT22;49035;48.812;11.762;2023-04-06T13:26:35;12.90;56.00
22161;DHT22;49035;48.812;11.762;2023-04-06T13:29:01;13.50;53.90
22161;DHT22;49035;48.812;11.762;2023-04-06T13:31:28;14.00;54.40
22161;DHT22;49035;48.812;11.762;2023-04-06T13:33:53;14.40;50.60
22161;DHT22;49035;48.812;11.762;2023-04-06T13:36:19;14.30;52.50
22161;DHT22;49035;48.812;11.762;2023-04-06T13:38:45;13.80;49.50
22161;DHT22;49035;48.812;11.762;2023-04-06T13:41:21;13.60;48.40
22161;DHT22;49035;48.812;11.762;2023-04-06T13:43:47;12.90;49.60
22161;DHT22;49035;48.812;11.762;2023-04-06T13:46:13;12.50;50.10
22161;DHT22;49035;48.812;11.762;2023-04-06T13:48:39;12.30;51.60
22161;DHT22;49035;48.812;11.762;2023-04-06T13:51:11;12.10;52.10
22161;DHT22;49035;48.812;11.762;2023-04-06T13:53:37;11.80;51.90
22161;DHT22;49035;48.812;11.762;2023-04-06T13:56:03;11.90;52.40
22161;DHT22;49035;48.812;11.762;2023-04-06T13:58:29;12.10;54.60
22161;DHT22;49035;48.812;11.762;2023-04-06T14:00:55;12.30;53.10
22161;DHT22;49035;48.812;11.762;2023-04-06T14:03:21;12.50;50.20
22161;DHT22;49035;48.812;11.762;2023-04-06T14:05:47;12.40;49.10
22161;DHT22;49035;48.812;11.762;2023-04-06T14:08:13;12.20;46.60
22161;DHT22;49035;48.812;11.762;2023-04-06T14:10:39;12.10;49.70
22161;DHT22;49035;48.812;11.762;2023-04-06T14:13:06;12.40;52.10
22161;DHT22;49035;48.812;11.762;2023-04-06T14:15:32;12.80;47.80
22161;DHT22;49035;48.812;11.762;2023-04-06T14:17:57;12.90;46.90
22161;DHT22;49035;48.812;11.762;2023-04-06T14:20:23;13.00;48.50
22161;DHT22;49035;48.812;11.762;2023-04-06T14:22:48;13.10;49.30
22161;DHT22;49035;48.812;11.762;2023-04-06T14:25:15;13.50;50.10
22161;DHT22;49035;48.812;11.762;2023-04-06T14:27:43;14.00;47.80
22161;DHT22;49035;48.812;11.762;2023-04-06T14:30:09;14.30;48.00
22161;DHT22;49035;48.812;11.762;2023-04-06T14:32:36;14.20;44.70
22161;DHT22;49035;48.812;11.762;2023-04-06T14:35:03;13.70;49.20
22161;DHT22;49035;48.812;11.762;2023-04-06T14:37:29;14.10;48.10
22161;DHT22;49035;48.812;11.762;2023-04-06T14:39:55;14.40;48.20
22161;DHT22;49035;48.812;11.762;2023-04-06T14:42:20;14.70;47.50
22161;DHT22;49035;48.812;11.762;2023-04-06T14:44:46;14.80;48.70
22161;DHT22;49035;48.812;11.762;2023-04-06T14:47:11;15.10;47.50
22161;DHT22;49035;48.812;11.762;2023-04-06T14:49:40;14.50;44.60
22161;DHT22;49035;48.812;11.762;2023-04-06T14:52:06;14.00;45.50
22161;DHT22;49035;48.812;11.762;2023-04-06T14:54:32;13.40;48.30
22161;DHT22;49035;48.812;11.762;2023-04-06T14:56:57;13.40;51.70
22161;DHT22;49035;48.812;11.762;2023-04-06T14:59:23;13.80;48.40
22161;DHT22;49035;48.812;11.762;2023-04-06T15:01:48;13.80;49.60
22161;DHT22;49035;48.812;11.762;2023-04-06T15:04:14;13.70;47.60
22161;DHT22;49035;48.812;11.762;2023-04-06T15:06:40;13.20;48.40
22161;DHT22;49035;48.812;11.762;2023-04-06T15:09:05;12.90;48.40
22161;DHT22;49035;48.812;11.762;2023-04-06T15:11:31;12.90;50.00
22161;DHT22;49035;48.812;11.762;2023-04-06T15:13:56;13.30;50.50
22161;DHT22;49035;48.812;11.762;2023-04-06T15:16:22;13.40;45.40
22161;DHT22;49035;48.812;11.762;2023-04-06T15:18:47;13.40;49.60
22161;DHT22;49035;48.812;11.762;2023-04-06T15:21:13;13.60;50.30